Time;durP1;ratioP1;P1;durP2;ratioP2;P2;SDS_P1;SDS_P2;PMS_P1;PMS_P2;Temp;Humidity;BMP_temperature;BMP_pressure;BME280_temperature;BME280_humidity;BME280_pressure;Samples;Min_cycle;Max_cycle;Signal;HPM_P1;HPM_P2
2022/06/05 00:01:54;;;;;;;27.70;18.27;;;;;;;8.44;73.88;102009.23;1685869;84;21739;-85
2022/06/05 00:04:54;;;;;;;24.47;18.05;;;;;;;8.42;73.93;102004.31;1685435;82;21051;-85
2022/06/05 00:07:55;;;;;;;25.77;18.05;;;;;;;8.38;74.03;102006.73;1694959;83;21084;-85
2022/06/05 00:10:36;;;;;;;29.25;18.85;;;;;;;8.35;74.07;102003.95;1687165;84;21788;-83
2022/06/05 00:13:41;;;;;;;25.05;18.50;;;;;;;8.33;74.15;102009.92;1687311;84;21048;-84
2022/06/05 00:16:08;;;;;;;25.50;17.20;;;;;;;8.29;74.21;102014.09;1700389;82;21768;-85
2022/06/05 00:18:37;;;;;;;27.40;17.62;;;;;;;8.29;74.30;102013.20;1703560;83;21118;-83
2022/06/05 00:21:05;;;;;;;29.87;18.10;;;;;;;8.28;74.31;102017.97;1700772;83;21117;-84
2022/06/05 00:23:32;;;;;;;25.97;19.23;;;;;;;8.26;74.28;102014.33;1706154;83;21301;-84
2022/06/05 00:26:29;;;;;;;25.40;19.23;;;;;;;8.25;74.36;102009.92;1669299;83;21146;-85
2022/06/05 00:29:20;;;;;;;28.52;19.55;;;;;;;8.24;74.39;102007.72;1701434;81;22077;-86
2022/06/05 00:32:18;;;;;;;31.57;19.67;;;;;;;8.23;74.47;102004.59;1689752;84;21611;-86
2022/06/05 00:34:45;;;;;;;26.55;18.73;;;;;;;8.25;74.47;102017.80;1684887;84;21097;-84
2022/06/05 00:37:48;;;;;;;31.20;19.90;;;;;;;8.21;74.55;102009.27;1712407;83;21050;-84
2022/06/05 00:41:04;;;;;;;26.17;19.52;;;;;;;8.20;74.64;102014.90;1694182;83;21043;-86
2022/06/05 00:43:31;;;;;;;35.55;20.40;;;;;;;8.17;74.69;102012.13;1683972;83;21827;-84
2022/06/05 00:45:58;;;;;;;33.85;21.07;;;;;;;8.14;74.76;102018.50;1673346;83;21090;-84
2022/06/05 00:48:25;;;;;;;31.80;22.00;;;;;;;8.10;74.84;102021.36;1707633;83;21047;-84
2022/06/05 00:50:52;;;;;;;34.25;21.23;;;;;;;8.06;74.92;102019.39;1699308;83;21023;-85
2022/06/05 00:53:19;;;;;;;32.63;20.97;;;;;;;8.05;75.04;102013.67;1709896;83;21062;-84
2022/06/05 00:55:50;;;;;;;36.68;21.97;;;;;;;8.03;75.00;102024.45;1696939;83;22523;-85
2022/06/05 00:58:16;;;;;;;37.45;23.00;;;;;;;7.92;75.08;102004.22;1692135;83;21558;-84
2022/06/05 01:00:47;;;;;;;34.20;21.52;;;;;;;8.00;75.15;102019.48;1682154;84;21172;-85
2022/06/05 01:03:14;;;;;;;31.00;22.27;;;;;;;8.00;75.25;102029.97;1708260;83;21137;-84
2022/06/05 01:05:41;;;;;;;40.65;23.20;;;;;;;7.99;75.28;102025.11;1694353;83;21098;-84
2022/06/05 01:08:09;;;;;;;32.28;21.75;;;;;;;7.98;75.35;102022.91;1695256;83;21751;-84
2022/06/05 01:11:02;;;;;;;32.55;21.87;;;;;;;7.98;75.36;102018.97;1702346;83;21028;-85
2022/06/05 01:14:06;;;;;;;34.85;22.32;;;;;;;7.98;75.45;102021.59;1689111;83;21101;-84
2022/06/05 01:16:41;;;;;;;32.50;21.65;;;;;;;7.96;75.45;102016.67;1704420;83;21046;-86
2022/06/05 01:19:31;;;;;;;30.70;19.85;;;;;;;7.96;75.50;102010.54;1657211;83;21363;-83
2022/06/05 01:22:29;;;;;;;28.65;20.70;;;;;;;7.95;75.52;102008.72;1696782;83;21817;-85
2022/06/05 01:25:30;;;;;;;33.42;21.70;;;;;;;7.93;75.51;102004.69;1700417;83;21244;-83
2022/06/05 01:28:00;;;;;;;28.83;20.32;;;;;;;7.92;75.55;102016.02;1702127;83;21081;-85
2022/06/05 01:30:27;;;;;;;30.08;20.82;;;;;;;7.94;75.60;102017.42;1674399;83;21057;-87
2022/06/05 01:33:14;;;;;;;28.65;19.90;;;;;;;7.93;75.61;102012.98;1657886;84;21412;-87
2022/06/05 01:36:13;;;;;;;31.30;21.07;;;;;;;7.92;75.55;102009.84;1685139;84;21670;-83
2022/06/05 01:38:54;;;;;;;34.70;20.32;;;;;;;7.92;75.63;102011.16;1684990;85;21113;-85
2022/06/05 01:41:49;;;;;;;31.30;21.00;;;;;;;7.91;75.57;102000.20;1676097;83;21049;-83
2022/06/05 01:44:22;;;;;;;28.47;19.50;;;;;;;7.87;75.59;102003.05;1685969;84;21066;-84
2022/06/05 01:46:49;;;;;;;32.15;20.62;;;;;;;7.87;75.66;101996.92;1686892;84;21074;-83
2022/06/05 01:49:29;;;;;;;29.52;20.82;;;;;;;7.86;75.68;101995.98;1686460;84;21775;-85
2022/06/05 01:52:18;;;;;;;31.37;19.92;;;;;;;7.87;75.71;101995.60;1686530;84;21747;-86
2022/06/05 01:54:54;;;;;;;29.32;19.05;;;;;;;7.86;75.72;101991.16;1683032;82;21517;-83
2022/06/05 01:57:27;;;;;;;27.65;18.92;;;;;;;7.85;75.76;101990.69;1686223;85;21137;-85
2022/06/05 02:00:15;;;;;;;27.00;19.07;;;;;;;7.85;75.76;101987.65;1663878;85;21094;-88
2022/06/05 02:03:10;;;;;;;25.95;17.80;;;;;;;7.84;75.79;101987.14;1680591;84;21800;-83
2022/06/05 02:05:51;;;;;;;26.82;18.70;;;;;;;7.85;75.83;101987.65;1685455;85;21097;-85
2022/06/05 02:08:49;;;;;;;27.20;18.52;;;;;;;7.85;75.83;101990.27;1682817;85;21086;-83
2022/06/05 02:11:22;;;;;;;27.00;18.00;;;;;;;7.84;75.82;101994.11;1679395;83;21695;-86
2022/06/05 02:13:51;;;;;;;;;;;;;;;7.84;75.81;101991.07;1689041;85;21081;-86
2022/06/05 02:16:17;;;;;;;23.35;17.02;;;;;;;7.85;75.92;101988.95;1677267;84;21674;-84
2022/06/05 02:18:44;;;;;;;25.12;16.77;;;;;;;7.87;75.93;101989.94;1676929;84;21110;-86
2022/06/05 02:21:11;;;;;;;24.07;17.07;;;;;;;7.86;75.92;101993.36;1683481;85;21093;-84
2022/06/05 02:23:38;;;;;;;25.52;17.87;;;;;;;7.85;75.97;101992.00;1686591;85;21069;-83
2022/06/05 02:26:06;;;;;;;27.25;17.40;;;;;;;7.87;76.02;101990.36;1686715;85;21054;-85
2022/06/05 02:28:33;;;;;;;23.73;17.73;;;;;;;7.88;76.05;101993.45;1686282;84;23055;-84
2022/06/05 02:31:11;;;;;;;23.42;17.25;;;;;;;7.85;76.02;101987.65;1679283;85;21136;-86
2022/06/05 02:34:16;;;;;;;25.00;16.93;;;;;;;7.92;76.02;101991.11;1638296;86;21143;-85
2022/06/05 02:37:11;;;;;;;21.40;16.07;;;;;;;7.95;76.06;101991.67;1641310;86;21740;-85
2022/06/05 02:39:49;;;;;;;22.50;16.05;;;;;;;7.98;76.00;101991.86;1693526;84;21063;-86
2022/06/05 02:42:36;;;;;;;23.12;16.75;;;;;;;8.01;76.03;101992.42;1672288;84;21755;-88
2022/06/05 02:45:40;;;;;;;24.52;16.65;;;;;;;8.04;76.02;101990.88;1676242;84;21101;-87
2022/06/05 02:48:36;;;;;;;21.15;15.53;;;;;;;8.08;75.97;101992.84;1692144;84;29323;-83
2022/06/05 02:51:16;;;;;;;22.82;15.83;;;;;;;8.12;76.02;101992.19;1636559;85;22023;-84
2022/06/05 02:53:50;;;;;;;26.07;16.32;;;;;;;8.19;76.03;101993.44;1650143;86;21587;-86
2022/06/05 02:56:17;;;;;;;18.52;15.05;;;;;;;8.25;76.05;101996.39;1646853;86;21737;-85
2022/06/05 02:58:46;;;;;;;20.82;15.15;;;;;;;8.33;76.00;102003.36;1646276;86;21079;-86
2022/06/05 03:03:58;;;;;;;17.02;14.35;;;;;;;8.47;75.94;101998.49;1642183;86;21134;-86
2022/06/05 03:06:24;;;;;;;19.82;14.10;;;;;;;8.57;75.85;102002.50;1643557;86;21104;-86
2022/06/05 03:08:51;;;;;;;20.57;14.75;;;;;;;8.66;75.84;102002.09;1644076;86;21833;-87
2022/06/05 03:11:18;;;;;;;19.80;14.40;;;;;;;8.77;75.81;102003.56;1645863;86;21062;-84
2022/06/05 03:13:45;;;;;;;15.60;13.28;;;;;;;8.89;75.73;102002.87;1645527;86;21080;-85
2022/06/05 03:16:12;;;;;;;16.73;13.60;;;;;;;9.02;75.64;102014.03;1702787;83;22387;-86
2022/06/05 03:18:39;;;;;;;20.40;14.60;;;;;;;9.13;75.57;102015.48;1668203;84;21073;-86
2022/06/05 03:21:05;;;;;;;16.95;13.62;;;;;;;9.26;75.53;102010.44;1656778;86;21756;-84
2022/06/05 03:23:32;;;;;;;18.45;13.00;;;;;;;9.43;75.50;102011.28;1644651;86;21124;-86
2022/06/05 03:25:59;;;;;;;18.15;12.82;;;;;;;9.66;75.61;102013.30;1666079;84;21817;-84
2022/06/05 03:28:27;;;;;;;17.60;11.93;;;;;;;10.95;78.42;102010.52;1682881;84;21091;-84
2022/06/05 03:30:54;;;;;;;14.63;11.50;;;;;;;13.04;78.39;102011.24;1703719;82;21124;-87
2022/06/05 03:33:21;;;;;;;16.07;11.18;;;;;;;15.07;76.89;102007.39;1684885;83;21810;-84
2022/06/05 03:35:48;;;;;;;14.43;11.38;;;;;;;16.65;73.92;102009.80;1685699;83;21034;-86
2022/06/05 03:38:15;;;;;;;13.00;10.55;;;;;;;17.41;70.46;102010.78;1686341;83;21097;-84
2022/06/05 03:40:43;;;;;;;13.22;10.28;;;;;;;17.44;67.50;102005.52;1707231;83;21316;-84
2022/06/05 03:43:10;;;;;;;14.05;10.15;;;;;;;16.97;65.66;102013.97;1697849;83;21113;-84
2022/06/05 03:45:37;;;;;;;13.38;9.78;;;;;;;17.63;68.17;102018.69;1708587;83;21758;-87
2022/06/05 03:48:05;;;;;;;13.43;9.35;;;;;;;19.18;67.09;102011.88;1687738;83;21591;-86
2022/06/05 03:50:39;;;;;;;11.08;8.98;;;;;;;20.52;65.48;102007.89;1710547;83;21081;-87
2022/06/05 03:53:07;;;;;;;9.60;8.23;;;;;;;21.88;63.46;102008.98;1664410;83;21806;-85
2022/06/05 03:55:34;;;;;;;9.75;8.28;;;;;;;23.06;61.79;102008.53;1712725;82;21082;-85
2022/06/05 03:58:02;;;;;;;9.83;8.35;;;;;;;24.14;59.64;102010.71;1686365;83;21541;-85
2022/06/05 04:00:29;;;;;;;10.72;8.33;;;;;;;25.22;57.79;102008.83;1697218;83;21125;-87
2022/06/05 04:02:56;;;;;;;8.75;7.60;;;;;;;26.73;53.96;102010.98;1703571;82;21664;-85
2022/06/05 04:05:23;;;;;;;8.03;6.80;;;;;;;26.73;53.96;102010.98;1685866;83;21145;-85
2022/06/05 04:07:50;;;;;;;8.43;7.03;;;;;;;27.60;52.83;102007.09;1685443;84;21091;-87
2022/06/05 04:10:17;;;;;;;8.60;7.37;;;;;;;28.37;50.71;102009.05;1685200;83;22560;-87
2022/06/05 04:12:44;;;;;;;7.53;6.78;;;;;;;28.90;49.21;102013.78;1686076;83;21066;-85
2022/06/05 04:15:12;;;;;;;9.38;7.20;;;;;;;29.56;47.96;102010.29;1685975;83;21074;-85
2022/06/05 04:17:39;;;;;;;9.90;6.95;;;;;;;30.22;46.76;102002.98;1687900;83;21185;-85
2022/06/05 04:20:07;;;;;;;8.93;7.17;;;;;;;30.84;45.29;102010.10;1704075;83;21057;-87
2022/06/05 04:22:38;;;;;;;9.20;6.78;;;;;;;31.27;44.01;102013.81;1695640;82;22604;-86
2022/06/05 04:25:06;;;;;;;7.05;6.35;;;;;;;31.77;43.02;102017.09;1685907;83;21133;-85
2022/06/05 04:27:33;;;;;;;7.87;6.78;;;;;;;32.28;41.86;102012.59;1686798;83;21757;-87
2022/06/05 04:30:00;;;;;;;7.00;5.83;;;;;;;32.98;41.00;102016.56;1713395;82;21074;-87
2022/06/05 04:32:27;;;;;;;7.03;5.78;;;;;;;33.51;40.12;102014.83;1703995;83;21078;-87
2022/06/05 04:34:54;;;;;;;8.38;5.53;;;;;;;34.14;38.93;102020.18;1694107;83;22656;-87
2022/06/05 04:37:21;;;;;;;7.08;5.62;;;;;;;34.58;37.67;102016.87;1720354;81;21706;-87
2022/06/05 04:39:48;;;;;;;6.75;5.37;;;;;;;34.78;36.81;102018.02;1714661;82;21173;-88
2022/06/05 04:42:14;;;;;;;6.25;5.60;;;;;;;35.15;35.99;102029.55;1680071;84;21114;-86
2022/06/05 04:44:41;;;;;;;6.35;4.90;;;;;;;35.75;35.26;102030.62;1662109;83;21106;-86
2022/06/05 04:47:08;;;;;;;5.85;4.72;;;;;;;36.23;34.54;102026.30;1700509;83;22653;-87
2022/06/05 04:49:35;;;;;;;5.25;4.72;;;;;;;36.83;33.95;102023.81;1698443;84;21656;-87
2022/06/05 04:52:03;;;;;;;5.12;4.55;;;;;;;37.43;33.15;102026.66;1696868;84;21087;-87
2022/06/05 04:54:30;;;;;;;6.03;4.67;;;;;;;37.69;31.74;102027.63;1677085;84;21119;-87
2022/06/05 04:56:57;;;;;;;6.15;4.58;;;;;;;37.66;31.28;102021.88;1696602;84;21091;-87
2022/06/05 04:59:24;;;;;;;5.83;4.22;;;;;;;38.00;31.06;102024.11;1677675;83;21696;-87
2022/06/05 05:01:50;;;;;;;4.75;3.90;;;;;;;38.39;30.31;102019.00;1709819;83;21563;-86
2022/06/05 05:04:17;;;;;;;5.03;4.25;;;;;;;38.55;29.40;102022.02;1708923;81;21453;-87
2022/06/05 05:06:44;;;;;;;4.22;3.83;;;;;;;38.55;28.94;102013.77;1708829;83;21610;-87
2022/06/05 05:09:17;;;;;;;4.83;3.58;;;;;;;38.47;28.54;102022.05;1700230;83;21066;-87
2022/06/05 05:11:41;;;;;;;5.35;3.42;;;;;;;38.68;28.43;102015.98;1683408;82;22633;-87
2022/06/05 05:14:09;;;;;;;4.67;4.05;;;;;;;38.92;27.90;102014.64;1691566;84;21655;-86
2022/06/05 05:16:37;;;;;;;4.53;3.67;;;;;;;38.91;27.25;102016.99;1687181;84;21625;-87
2022/06/05 05:19:04;;;;;;;4.78;3.47;;;;;;;38.94;26.87;102009.02;1694247;83;21087;-87
2022/06/05 05:21:31;;;;;;;4.65;3.25;;;;;;;39.04;26.85;102015.12;1683275;84;21082;-86
2022/06/05 05:23:58;;;;;;;4.17;3.52;;;;;;;39.61;26.54;102013.50;1684819;84;21785;-87
2022/06/05 05:26:31;;;;;;;4.40;3.83;;;;;;;39.90;25.70;102013.09;1686027;84;21122;-88
2022/06/05 05:28:58;;;;;;;4.22;3.50;;;;;;;39.83;25.44;102008.55;1692897;83;21106;-88
2022/06/05 05:31:35;;;;;;;4.28;3.52;;;;;;;39.69;25.20;102012.89;1687215;83;21160;-86
2022/06/05 05:34:02;;;;;;;3.83;3.22;;;;;;;39.74;25.13;102007.00;1698389;82;21109;-85
2022/06/05 05:36:29;;;;;;;3.90;2.92;;;;;;;39.77;24.77;102013.15;1698274;83;21974;-87
2022/06/05 05:44:27;;;;;;;5.17;2.47;;;;;;;34.18;23.97;102004.95;1706903;83;21435;-88
2022/06/05 05:46:54;;;;;;;3.70;2.98;;;;;;;31.16;25.05;102004.77;1700418;83;21614;-88
2022/06/05 05:49:24;;;;;;;5.40;2.52;;;;;;;29.30;26.23;102009.82;1700301;83;21813;-86
2022/06/05 05:51:51;;;;;;;3.85;2.40;;;;;;;27.66;27.35;102006.92;1673003;83;21061;-88
2022/06/05 05:54:17;;;;;;;4.78;2.80;;;;;;;26.32;28.24;102011.38;1712601;83;21129;-84
2022/06/05 05:56:45;;;;;;;3.90;2.58;;;;;;;25.11;29.27;102014.84;1721282;83;21511;-85
2022/06/05 05:59:13;;;;;;;3.50;2.60;;;;;;;24.22;30.31;102015.11;1712193;83;21540;-87
2022/06/05 06:01:40;;;;;;;5.33;2.80;;;;;;;23.40;31.11;102019.02;1708215;81;21894;-90
2022/06/05 06:04:07;;;;;;;4.53;2.58;;;;;;;22.50;31.96;102003.00;1712450;81;21078;-88
2022/06/05 06:06:35;;;;;;;5.75;2.90;;;;;;;22.02;33.08;102013.88;1706456;82;21112;-87
2022/06/05 06:09:03;;;;;;;3.33;2.45;;;;;;;21.43;33.73;102015.67;1690099;83;21071;-86
2022/06/05 06:11:39;;;;;;;3.15;2.50;;;;;;;20.99;34.54;102011.64;1715569;83;21147;-89
2022/06/05 06:16:47;;;;;;;3.40;2.40;;;;;;;20.26;35.99;102016.69;1856316;74;22773;-91
2022/06/05 06:19:14;;;;;;;3.37;2.50;;;;;;;19.93;36.63;102020.05;1796829;77;20994;-90
2022/06/05 06:21:41;;;;;;;3.70;2.58;;;;;;;19.48;36.88;102019.67;1807634;75;21750;-96
2022/06/05 06:24:07;;;;;;;6.17;2.50;;;;;;;18.95;37.56;102024.08;1805492;77;20967;-93
2022/06/05 06:26:34;;;;;;;4.10;2.60;;;;;;;18.65;38.47;102024.14;1803905;77;21022;-96
2022/06/05 06:29:01;;;;;;;4.22;2.70;;;;;;;18.54;38.97;102023.12;1769955;80;21061;-92
2022/06/05 06:31:32;;;;;;;4.42;2.45;;;;;;;18.45;39.41;102023.91;1726516;81;21066;-91
2022/06/05 06:34:11;;;;;;;2.58;2.20;;;;;;;18.24;39.92;102016.50;1746962;80;22450;-90
2022/06/05 06:36:38;;;;;;;6.70;2.85;;;;;;;18.03;40.29;102014.44;1747951;78;21156;-91
2022/06/05 06:39:06;;;;;;;6.85;2.92;;;;;;;17.78;40.81;102015.38;1772221;78;21161;-91
2022/06/05 06:41:33;;;;;;;8.70;5.20;;;;;;;17.60;41.45;102015.97;1770745;80;21371;-89
2022/06/05 06:44:01;;;;;;;3.70;2.90;;;;;;;17.51;42.02;102018.92;1757679;79;21076;-90
2022/06/05 06:46:28;;;;;;;3.50;3.20;;;;;;;17.41;42.47;102024.53;1764549;80;22347;-90
2022/06/05 06:48:56;;;;;;;4.78;2.92;;;;;;;17.35;43.01;102018.67;1755895;80;21143;-88
2022/06/05 06:51:27;;;;;;;5.28;2.92;;;;;;;17.40;43.20;102019.65;1764464;78;21492;-90
2022/06/05 06:53:54;;;;;;;5.30;2.55;;;;;;;17.46;43.41;102021.52;1736349;80;21070;-91
2022/06/05 06:56:24;;;;;;;5.33;3.55;;;;;;;17.53;43.62;102029.16;1757240;78;21118;-90
2022/06/05 06:58:50;;;;;;;4.42;2.92;;;;;;;17.48;43.81;102025.98;1767847;78;22682;-89
2022/06/05 07:01:17;;;;;;;3.90;2.33;;;;;;;17.50;44.07;102023.36;1750174;80;21121;-89
2022/06/05 07:03:44;;;;;;;4.28;3.10;;;;;;;17.57;44.26;102023.00;1750868;78;21046;-89
2022/06/05 07:06:12;;;;;;;5.67;2.50;;;;;;;17.62;44.28;102022.21;1755953;78;21050;-89
2022/06/05 07:08:40;;;;;;;4.53;2.47;;;;;;;17.62;44.35;102023.54;1744697;78;21109;-89
2022/06/05 07:11:09;;;;;;;3.08;2.17;;;;;;;17.64;44.49;102016.92;1754126;78;21678;-88
2022/06/05 07:13:36;;;;;;;5.08;2.67;;;;;;;17.61;44.63;102013.78;1757237;78;21066;-89
2022/06/05 07:16:08;;;;;;;4.12;2.30;;;;;;;17.60;44.81;102019.96;1764827;78;21026;-89
2022/06/05 07:18:34;;;;;;;7.08;2.70;;;;;;;17.58;44.94;102021.70;1746834;80;21514;-90
2022/06/05 07:21:16;;;;;;;3.65;2.92;;;;;;;17.60;45.20;102015.97;1772854;78;21101;-89
2022/06/05 07:23:41;;;;;;;4.50;1.77;;;;;;;17.64;45.15;102014.25;1720967;81;21712;-88
2022/06/05 07:26:09;;;;;;;2.33;1.57;;;;;;;17.67;45.21;102012.98;1770059;78;20994;-89
2022/06/05 07:28:36;;;;;;;3.08;2.10;;;;;;;17.62;44.93;102010.23;1740985;80;21171;-91
2022/06/05 07:31:03;;;;;;;4.00;2.22;;;;;;;17.62;45.08;102016.88;1756659;80;21109;-89
2022/06/05 07:33:31;;;;;;;3.02;2.35;;;;;;;17.65;45.40;102014.73;1737913;81;21065;-88
2022/06/05 07:35:58;;;;;;;4.22;2.55;;;;;;;17.64;45.50;102008.52;1749652;80;22762;-89
2022/06/05 07:38:26;;;;;;;3.05;2.15;;;;;;;17.62;45.63;102010.23;1756958;80;20986;-89
2022/06/05 07:40:53;;;;;;;3.50;2.27;;;;;;;17.62;45.73;102010.67;1753337;80;21105;-85
2022/06/05 07:43:21;;;;;;;2.55;2.35;;;;;;;17.60;45.75;102003.98;1760920;80;21102;-84
2022/06/05 07:45:50;;;;;;;4.53;2.92;;;;;;;17.66;46.14;102010.77;1777900;79;21316;-88
2022/06/05 07:48:19;;;;;;;4.33;3.17;;;;;;;17.74;46.38;102001.56;1744373;81;21747;-88
2022/06/05 07:56:21;;;;;;;3.92;2.92;;;;;;;17.79;46.58;101997.62;1757728;80;21572;-87
2022/06/05 07:59:17;;;;;;;6.53;3.20;;;;;;;17.77;46.81;101990.94;1752886;80;21912;-90
2022/06/05 08:02:03;;;;;;;;;;;;;;;;;;;;;
2022/06/05 08:05:46;;;;;;;;;;;;;;;;;;;;;
2022/06/05 08:08:08;;;;;;;4.67;3.35;;;;;;;17.92;47.35;101990.30;1758042;78;21558;-89
2022/06/05 08:10:34;;;;;;;5.22;3.35;;;;;;;18.03;47.25;101998.01;1756927;80;21081;-91
2022/06/05 08:13:08;;;;;;;4.28;3.70;;;;;;;18.01;47.19;101989.10;1771218;79;21005;-89
2022/06/05 08:15:37;;;;;;;5.35;3.62;;;;;;;17.97;47.22;101984.61;1767248;79;22816;-89
2022/06/05 08:18:06;;;;;;;4.55;2.90;;;;;;;17.97;47.38;101989.94;1757520;78;21110;-90
2022/06/05 08:20:41;;;;;;;3.37;3.00;;;;;;;17.93;47.23;101996.11;1759413;79;22157;-89
2022/06/05 08:23:06;;;;;;;;;;;;;;;17.92;47.32;101998.30;1758277;80;21584;-89
2022/06/05 08:25:33;;;;;;;4.00;2.90;;;;;;;17.92;47.58;101994.30;1748715;80;20236;-89
2022/06/05 08:28:34;;;;;;;3.98;3.10;;;;;;;17.98;47.76;101990.83;1727298;80;21753;-90
2022/06/05 08:31:09;;;;;;;3.70;2.92;;;;;;;18.01;47.87;101988.22;1745894;78;21635;-91
2022/06/05 08:33:35;;;;;;;3.90;3.00;;;;;;;18.13;48.27;101983.48;1753851;80;21154;-90
2022/06/05 08:36:02;;;;;;;4.30;3.02;;;;;;;18.31;48.45;101985.06;1756394;80;21099;-90
2022/06/05 08:41:34;;;;;;;3.65;3.00;;;;;;;18.56;48.17;101981.36;1746645;78;21963;-90
2022/06/05 08:44:37;;;;;;;3.35;3.00;;;;;;;18.69;48.10;101984.62;1695283;80;21094;-90
2022/06/05 08:47:21;;;;;;;4.25;3.25;;;;;;;18.80;48.10;101987.00;1754141;79;21097;-89
2022/06/05 08:50:02;;;;;;;5.65;2.85;;;;;;;18.91;47.97;101988.91;1732373;80;21137;-90
2022/06/05 08:52:49;;;;;;;2.95;2.42;;;;;;;18.88;47.84;101984.41;1756812;78;21125;-91
2022/06/05 08:55:31;;;;;;;7.70;3.08;;;;;;;18.90;48.17;101971.09;1746082;80;21815;-90
2022/06/05 08:58:43;;;;;;;3.55;2.65;;;;;;;19.04;47.93;101977.47;1749763;78;21597;-89
2022/06/05 09:01:14;;;;;;;3.70;2.60;;;;;;;19.06;47.73;101973.48;1751008;78;21109;-89
2022/06/05 09:04:22;;;;;;;2.00;1.80;;;;;;;19.02;47.30;101973.90;1745547;80;21579;-89
2022/06/05 09:07:05;;;;;;;3.17;2.10;;;;;;;19.01;47.00;101969.42;1722221;82;21111;-89
2022/06/05 09:09:49;;;;;;;3.22;2.05;;;;;;;19.06;46.58;101969.04;1753658;80;21699;-91
2022/06/05 09:12:39;;;;;;;5.03;2.05;;;;;;;19.13;46.79;101970.89;1715554;80;22294;-89
2022/06/05 09:15:23;;;;;;;5.92;2.27;;;;;;;19.18;46.79;101969.58;1797862;78;21497;-91
2022/06/05 09:18:14;;;;;;;2.58;2.15;;;;;;;19.21;46.66;101971.84;1788737;78;21705;-91
2022/06/05 09:21:01;;;;;;;3.37;2.40;;;;;;;19.26;46.79;101973.23;1714792;81;21126;-91
2022/06/05 09:23:49;;;;;;;2.62;2.40;;;;;;;19.29;46.71;101971.02;1746432;79;22127;-89
2022/06/05 09:26:41;;;;;;;3.58;2.50;;;;;;;19.35;46.75;101968.39;1747192;79;21522;-89
2022/06/05 09:29:47;;;;;;;2.87;2.12;;;;;;;19.40;46.65;101958.65;1741472;79;21167;-89
2022/06/05 09:36:16;;;;;;;8.10;7.30;;;;;;;19.38;46.32;101954.63;1618375;86;21160;-89
2022/06/05 09:39:27;;;;;;;4.05;2.80;;;;;;;19.32;46.33;101943.91;1603015;85;21184;-90
2022/06/05 09:42:51;;;;;;;3.10;2.37;;;;;;;19.32;46.47;101948.36;1701040;83;21119;-89
2022/06/05 09:45:56;;;;;;;2.95;2.20;;;;;;;19.26;46.32;101956.30;1702413;82;21168;-89
2022/06/05 09:49:18;;;;;;;4.35;2.70;;;;;;;19.23;46.39;101961.18;1705058;83;21587;-88
2022/06/05 09:51:45;;;;;;;4.65;3.20;;;;;;;19.22;46.41;101958.96;1712662;82;21150;-88
2022/06/05 09:54:30;;;;;;;3.83;2.45;;;;;;;19.23;46.15;101962.06;1700467;81;21746;-88
2022/06/05 10:00:18;;;;;;;2.85;2.12;;;;;;;19.28;46.22;101949.23;1791845;78;21113;-90
2022/06/05 10:02:48;;;;;;;3.05;2.20;;;;;;;19.31;46.13;101950.56;1792665;77;21227;-90
2022/06/05 10:05:26;;;;;;;4.40;2.08;;;;;;;19.37;46.06;101951.94;1791830;78;21152;-90
2022/06/05 10:08:27;;;;;;;5.75;2.10;;;;;;;19.39;45.97;101952.42;1801168;77;21749;-88
2022/06/05 10:11:33;;;;;;;2.55;2.17;;;;;;;19.44;45.94;101951.11;1783529;77;21078;-90
2022/06/05 10:14:50;;;;;;;2.10;1.90;;;;;;;19.50;45.89;101943.17;1808663;78;21504;-91
2022/06/05 10:17:46;;;;;;;2.30;2.08;;;;;;;19.62;45.86;101948.58;1797444;77;21065;-89
2022/06/05 10:20:24;;;;;;;2.50;2.00;;;;;;;19.68;45.61;101942.37;1792117;77;20983;-89
2022/06/05 10:23:28;;;;;;;3.72;2.15;;;;;;;19.74;45.52;101938.88;1791105;77;21717;-89
2022/06/05 10:26:28;;;;;;;2.53;2.03;;;;;;;19.79;45.57;101938.48;1795873;78;21006;-89
2022/06/05 10:29:09;;;;;;;3.70;1.95;;;;;;;19.87;45.45;101934.52;1799175;77;21687;-90
2022/06/05 10:31:36;;;;;;;4.53;2.00;;;;;;;19.89;45.31;101927.39;1784642;78;21129;-91
2022/06/05 10:34:34;;;;;;;2.37;1.92;;;;;;;19.94;45.37;101927.87;1759390;80;21041;-91
2022/06/05 10:37:27;;;;;;;3.02;2.20;;;;;;;20.03;45.35;101923.02;1746174;80;22654;-91
2022/06/05 10:40:22;;;;;;;2.33;1.98;;;;;;;20.16;45.05;101920.84;1762884;78;21081;-90
2022/06/05 10:43:06;;;;;;;1.95;1.72;;;;;;;20.20;44.93;101921.75;1745989;80;22113;-91
2022/06/05 10:45:51;;;;;;;2.17;1.98;;;;;;;20.29;44.69;101924.89;1760157;78;21057;-90
2022/06/05 10:49:11;;;;;;;3.58;2.15;;;;;;;20.38;44.95;101927.59;1748702;78;21010;-91
2022/06/05 10:51:51;;;;;;;4.53;2.30;;;;;;;20.39;44.87;101922.25;1747630;79;21771;-90
2022/06/05 10:54:45;;;;;;;2.72;2.20;;;;;;;20.35;45.10;101926.27;1749253;80;21097;-90
2022/06/05 10:57:27;;;;;;;4.67;2.40;;;;;;;20.29;45.02;101920.45;1671273;81;21172;-89
2022/06/05 11:07:34;;;;;;;2.42;2.17;;;;;;;20.18;45.08;101923.08;1545473;91;21225;-89
2022/06/05 11:14:59;;;;;;;2.98;2.17;;;;;;;20.20;45.33;101922.64;1547783;89;21084;-90
2022/06/05 11:18:12;;;;;;;4.58;2.00;;;;;;;20.29;45.46;101915.11;1539737;90;21780;-90
2022/06/05 11:20:52;;;;;;;3.02;2.00;;;;;;;20.26;45.36;101907.06;1536803;91;21164;-91
2022/06/05 11:27:41;;;;;;;1.77;1.60;;;;;;;20.25;45.30;101881.66;1507634;93;21272;-89
2022/06/05 11:31:20;;;;;;;;;;;;;;;;;;;;;
2022/06/05 11:34:11;;;;;;;1.95;1.80;;;;;;;20.38;44.32;101898.17;1541524;91;21094;-89
2022/06/05 11:36:51;;;;;;;2.10;1.90;;;;;;;20.36;45.17;101887.50;1541099;91;21088;-89
2022/06/05 11:39:54;;;;;;;3.30;2.35;;;;;;;20.42;45.48;101883.95;1679381;83;21728;-89
2022/06/05 11:42:38;;;;;;;3.33;2.27;;;;;;;20.49;45.63;101879.03;1680663;84;21093;-90
2022/06/05 11:45:21;;;;;;;3.22;2.27;;;;;;;20.58;45.69;101883.52;1676687;84;21073;-90
2022/06/05 11:48:19;;;;;;;3.05;2.22;;;;;;;20.59;45.76;101883.53;1686515;83;21058;-90
2022/06/05 11:51:24;;;;;;;2.98;2.12;;;;;;;20.60;46.08;101879.09;1685198;84;21690;-90
2022/06/05 11:54:24;;;;;;;3.15;2.02;;;;;;;20.65;46.03;101874.66;1688733;81;21784;-89
2022/06/05 11:57:14;;;;;;;3.58;2.12;;;;;;;20.68;46.09;101870.63;1707682;81;21082;-89
2022/06/05 12:00:08;;;;;;;2.87;2.58;;;;;;;20.62;46.03;101866.61;1733921;79;21082;-89
2022/06/05 12:02:49;;;;;;;3.60;2.50;;;;;;;20.54;46.31;101866.57;1749057;79;21145;-89
2022/06/05 12:05:54;;;;;;;3.37;2.70;;;;;;;20.56;46.67;101863.45;1749996;79;21662;-91
2022/06/05 12:08:41;;;;;;;5.15;2.90;;;;;;;20.59;46.65;101862.58;1728498;80;21996;-90
2022/06/05 12:11:17;;;;;;;4.25;3.33;;;;;;;20.58;46.55;101868.81;1762793;79;21134;-90
2022/06/05 12:14:06;;;;;;;3.42;2.47;;;;;;;20.50;46.60;101866.58;1755910;79;21074;-89
2022/06/05 12:17:25;;;;;;;5.17;3.35;;;;;;;20.47;46.78;101864.77;1758861;78;21699;-89
2022/06/05 12:20:13;;;;;;;3.12;2.62;;;;;;;20.51;46.75;101853.64;1707762;82;21114;-89
2022/06/05 12:22:56;;;;;;;2.90;2.50;;;;;;;20.51;46.74;101853.64;1748309;81;21518;-89
2022/06/05 12:25:27;;;;;;;2.90;2.40;;;;;;;20.48;46.68;101845.17;1766340;78;21041;-89
2022/06/05 12:28:11;;;;;;;5.17;2.33;;;;;;;20.49;46.09;101847.39;1773182;78;21014;-89
2022/06/05 12:30:50;;;;;;;3.00;2.08;;;;;;;20.48;46.20;101842.95;1774734;76;21147;-90
2022/06/05 12:33:33;;;;;;;2.40;1.67;;;;;;;20.58;46.08;101848.30;1775953;78;21443;-89
2022/06/05 12:36:11;;;;;;;1.73;1.50;;;;;;;20.61;45.70;101846.13;1770535;78;21769;-89
2022/06/05 12:38:46;;;;;;;2.55;1.67;;;;;;;20.59;45.44;101844.74;1772827;78;22255;-89
2022/06/05 12:41:46;;;;;;;2.05;1.47;;;;;;;20.57;44.99;101850.54;1749408;78;20981;-89
2022/06/05 12:44:29;;;;;;;2.08;1.50;;;;;;;20.48;44.79;101844.30;1767157;78;21116;-90
2022/06/05 12:47:22;;;;;;;2.15;1.32;;;;;;;20.48;44.65;101846.97;1725239;81;21702;-89
2022/06/05 12:49:57;;;;;;;1.77;1.67;;;;;;;20.47;44.15;101842.49;1755299;80;21753;-89
2022/06/05 12:52:52;;;;;;;2.15;1.72;;;;;;;20.49;43.90;101846.06;1755893;80;21776;-88
2022/06/05 12:55:27;;;;;;;1.42;1.32;;;;;;;20.50;43.79;101847.86;1770830;78;21084;-89
2022/06/05 12:58:14;;;;;;;1.90;1.40;;;;;;;20.49;43.72;101837.58;1743534;80;21103;-89
2022/06/05 13:00:53;;;;;;;1.65;1.55;;;;;;;20.51;43.63;101846.95;1746422;80;21502;-90